createdAt,value
2022-11-10T00:00:26.609Z,1.60
2022-11-10T00:03:14.469Z,1.85
2022-11-10T00:06:06.714Z,1.85
2022-11-10T00:08:54.182Z,1.85
2022-11-10T00:11:42.431Z,2.00
2022-11-10T00:14:49.066Z,2.00
2022-11-10T00:17:37.459Z,1.95
2022-11-10T00:20:24.887Z,1.90
2022-11-10T00:23:12.664Z,1.77
2022-11-10T00:26:00.850Z,1.85
2022-11-10T00:28:48.488Z,2.42
2022-11-10T00:31:39.112Z,2.00
2022-11-10T00:34:26.449Z,2.22
2022-11-10T00:37:14.087Z,1.85
2022-11-10T00:40:01.716Z,1.95
2022-11-10T00:42:49.438Z,2.20
2022-11-10T00:45:36.788Z,1.85
2022-11-10T00:48:25.900Z,1.98
2022-11-10T00:51:19.509Z,2.38
2022-11-10T00:54:07.538Z,1.77
2022-11-10T00:56:55.273Z,2.05
2022-11-10T00:59:42.843Z,1.50
2022-11-10T01:02:30.420Z,2.35
2022-11-10T01:05:19.494Z,2.47
2022-11-10T01:08:07.250Z,1.80
2022-11-10T01:11:01.965Z,1.95
2022-11-10T01:13:52.297Z,1.98
2022-11-10T01:16:39.851Z,2.28
2022-11-10T01:19:27.410Z,2.20
2022-11-10T01:22:16.603Z,2.05
2022-11-10T01:25:04.532Z,2.30
2022-11-10T01:27:52.338Z,2.10
2022-11-10T01:30:40.156Z,1.98
2022-11-10T01:33:28.199Z,1.88
2022-11-10T01:36:16.033Z,1.83
2022-11-10T01:39:05.058Z,2.00
2022-11-10T01:41:52.744Z,2.30
2022-11-10T01:44:42.828Z,2.08
2022-11-10T01:47:30.677Z,2.05
2022-11-10T01:50:19.755Z,1.75
2022-11-10T01:53:11.943Z,2.05
2022-11-10T01:56:01.578Z,2.50
2022-11-10T01:58:56.978Z,1.77
2022-11-10T02:01:45.078Z,2.22
2022-11-10T02:04:32.799Z,2.08
2022-11-10T02:07:20.575Z,2.10
2022-11-10T02:10:16.175Z,1.67
2022-11-10T02:13:05.453Z,1.98
2022-11-10T02:15:53.488Z,1.80
2022-11-10T02:18:41.363Z,2.10
2022-11-10T02:21:30.064Z,2.03
2022-11-10T02:24:17.963Z,1.90
2022-11-10T02:27:05.603Z,1.95
2022-11-10T02:29:54.165Z,1.73
2022-11-10T02:32:41.627Z,1.88
2022-11-10T02:35:29.167Z,1.75
2022-11-10T02:38:18.065Z,1.77
2022-11-10T02:41:05.577Z,2.28
2022-11-10T02:43:53.844Z,3.08
2022-11-10T02:46:41.766Z,2.70
2022-11-10T02:49:29.264Z,2.13
2022-11-10T02:52:16.792Z,2.10
2022-11-10T02:55:06.598Z,2.50
2022-11-10T02:57:53.946Z,1.63
2022-11-10T03:00:41.523Z,2.45
2022-11-10T03:03:29.212Z,1.80
2022-11-10T03:06:16.514Z,2.00
2022-11-10T03:09:06.816Z,2.05
2022-11-10T03:11:55.807Z,1.92
2022-11-10T03:14:43.551Z,2.38
2022-11-10T03:17:31.191Z,2.08
2022-11-10T03:20:19.959Z,1.60
2022-11-10T03:23:08.186Z,1.90
2022-11-10T03:25:55.994Z,1.80
2022-11-10T03:28:44.911Z,2.13
2022-11-10T03:31:32.272Z,1.77
2022-11-10T03:34:19.838Z,1.92
2022-11-10T03:37:07.442Z,1.80
2022-11-10T03:39:54.958Z,1.38
2022-11-10T03:42:45.982Z,1.88
2022-11-10T03:45:35.091Z,1.55
2022-11-10T03:48:22.696Z,1.30
2022-11-10T03:51:10.434Z,1.50
2022-11-10T03:53:58.096Z,1.80
2022-11-10T03:56:45.487Z,1.60
2022-11-10T03:59:33.162Z,1.15
2022-11-10T04:02:22.298Z,1.00
2022-11-10T04:05:28.072Z,0.80
2022-11-10T04:08:36.045Z,1.55
2022-11-10T04:11:37.412Z,1.25
2022-11-10T04:14:53.438Z,0.98
2022-11-10T04:17:42.626Z,1.20
2022-11-10T04:20:30.256Z,0.95
2022-11-10T04:23:31.076Z,0.85
2022-11-10T04:26:30.394Z,0.80
2022-11-10T04:29:19.824Z,0.70
2022-11-10T04:32:08.519Z,0.68
2022-11-10T04:34:57.525Z,0.80
2022-11-10T04:37:47.402Z,1.00
2022-11-10T04:40:34.922Z,0.80
2022-11-10T04:43:22.752Z,0.47
2022-11-10T04:46:20.605Z,0.70
2022-11-10T04:49:09.135Z,0.60
2022-11-10T04:51:58.027Z,0.80
2022-11-10T04:54:45.679Z,0.60
2022-11-10T04:57:33.351Z,0.47
2022-11-10T05:00:21.108Z,0.35
2022-11-10T05:03:11.326Z,0.40
2022-11-10T05:05:58.672Z,0.40
2022-11-10T05:08:47.881Z,0.40
2022-11-10T05:11:35.471Z,0.30
2022-11-10T05:14:22.785Z,0.30
2022-11-10T05:17:10.160Z,0.30
2022-11-10T05:19:57.875Z,0.40
2022-11-10T05:22:49.133Z,0.30
2022-11-10T05:25:39.452Z,0.45
2022-11-10T05:28:27.007Z,0.45
2022-11-10T05:31:14.876Z,0.43
2022-11-10T05:34:02.467Z,0.30
2022-11-10T05:36:50.139Z,0.30
2022-11-10T05:39:37.832Z,0.40
2022-11-10T05:42:27.610Z,0.47
2022-11-10T05:45:15.824Z,0.50
2022-11-10T05:48:03.398Z,0.45
2022-11-10T05:50:50.633Z,0.52
2022-11-10T05:53:37.976Z,0.30
2022-11-10T05:56:25.591Z,0.55
2022-11-10T05:59:14.747Z,0.30
2022-11-10T06:02:02.138Z,0.45
2022-11-10T06:04:49.617Z,0.40
2022-11-10T06:07:38.861Z,0.50
2022-11-10T06:10:26.904Z,0.45
2022-11-10T06:13:14.272Z,0.40
2022-11-10T06:16:03.340Z,0.77
2022-11-10T06:18:50.769Z,0.60
2022-11-10T06:21:38.558Z,0.35
2022-11-10T06:24:26.252Z,0.50
2022-11-10T06:27:13.684Z,0.60
2022-11-10T06:30:01.474Z,1.00
2022-11-10T06:32:50.974Z,0.68
2022-11-10T06:35:38.232Z,0.70
2022-11-10T06:38:25.716Z,0.73
2022-11-10T06:41:13.161Z,0.80
2022-11-10T06:44:00.857Z,0.60
2022-11-10T06:46:48.122Z,0.93
2022-11-10T06:49:37.210Z,0.85
2022-11-10T06:52:24.796Z,0.70
2022-11-10T06:55:12.373Z,0.50
2022-11-10T06:57:59.938Z,0.65
2022-11-10T07:00:48.326Z,0.80
2022-11-10T07:03:44.450Z,0.60
2022-11-10T07:06:42.660Z,0.60
2022-11-10T07:09:30.416Z,0.70
2022-11-10T07:12:17.798Z,0.43
2022-11-10T07:15:05.731Z,0.40
2022-11-10T07:17:53.655Z,0.63
2022-11-10T07:20:41.847Z,0.60
2022-11-10T07:23:30.599Z,0.60
2022-11-10T07:26:17.837Z,0.50
2022-11-10T07:29:05.589Z,0.30
2022-11-10T07:31:53.086Z,0.38
2022-11-10T07:34:40.328Z,0.50
2022-11-10T07:37:28.082Z,0.50
2022-11-10T07:40:17.871Z,0.50
2022-11-10T07:43:05.739Z,0.63
2022-11-10T07:45:53.810Z,0.63
2022-11-10T07:48:41.602Z,0.80
2022-11-10T07:51:30.828Z,1.05
2022-11-10T07:54:18.312Z,0.73
2022-11-10T07:57:07.278Z,0.60
2022-11-10T07:59:57.895Z,0.90
2022-11-10T08:02:45.585Z,0.82
2022-11-10T08:05:33.832Z,0.82
2022-11-10T08:08:21.240Z,0.93
2022-11-10T08:11:08.860Z,1.08
2022-11-10T08:13:57.811Z,0.90
2022-11-10T08:16:45.648Z,1.25
2022-11-10T08:19:33.265Z,0.90
2022-11-10T08:22:20.599Z,0.98
2022-11-10T08:25:08.704Z,1.10
2022-11-10T08:28:00.662Z,1.27
2022-11-10T08:30:49.908Z,1.00
2022-11-10T08:33:37.649Z,0.82
2022-11-10T08:36:25.364Z,1.17
2022-11-10T08:39:24.853Z,1.30
2022-11-10T08:42:21.765Z,0.73
2022-11-10T08:45:10.309Z,0.80
2022-11-10T08:48:03.220Z,0.70
2022-11-10T08:50:51.633Z,0.63
2022-11-10T08:53:39.268Z,1.00
2022-11-10T08:56:27.911Z,0.80
2022-11-10T08:59:15.358Z,0.50
2022-11-10T09:02:03.177Z,0.60
2022-11-10T09:04:51.969Z,0.90
2022-11-10T09:07:45.272Z,0.50
2022-11-10T09:10:32.743Z,0.57
2022-11-10T09:13:26.287Z,0.30
2022-11-10T09:16:16.356Z,0.40
2022-11-10T09:19:03.753Z,0.93
2022-11-10T09:21:52.473Z,0.32
2022-11-10T09:24:39.908Z,0.40
2022-11-10T09:27:27.448Z,0.52
2022-11-10T09:30:17.883Z,0.40
2022-11-10T09:33:05.979Z,0.60
2022-11-10T09:35:59.024Z,0.52
2022-11-10T09:38:47.947Z,0.63
2022-11-10T09:41:39.519Z,0.70
2022-11-10T09:44:30.978Z,0.65
2022-11-10T09:47:50.633Z,0.70
2022-11-10T09:50:38.593Z,0.80
2022-11-10T09:53:30.357Z,0.75
2022-11-10T09:56:22.871Z,0.60
2022-11-10T09:59:17.695Z,0.70
2022-11-10T10:02:11.008Z,0.60
2022-11-10T10:05:31.303Z,0.57
2022-11-10T10:08:27.826Z,0.60
2022-11-10T10:11:27.708Z,0.47
2022-11-10T10:14:46.012Z,0.50
2022-11-10T10:17:41.594Z,0.52
2022-11-10T10:20:36.470Z,0.70
2022-11-10T10:24:02.270Z,0.85
2022-11-10T10:26:46.579Z,1.20
2022-11-10T10:29:39.107Z,1.10
2022-11-10T10:32:28.350Z,1.13
2022-11-10T10:35:18.048Z,1.20
2022-11-10T10:38:12.249Z,1.63
2022-11-10T10:41:04.119Z,1.48
2022-11-10T10:43:56.339Z,1.52
2022-11-10T10:46:47.469Z,1.50
2022-11-10T10:49:36.383Z,1.30
2022-11-10T10:52:25.442Z,1.77
2022-11-10T10:55:14.983Z,2.00
2022-11-10T10:58:05.790Z,1.90
2022-11-10T11:00:59.665Z,1.58
2022-11-10T11:03:48.801Z,1.52
2022-11-10T11:06:37.063Z,1.40
2022-11-10T11:09:26.435Z,1.95
2022-11-10T11:12:15.891Z,1.60
2022-11-10T11:15:15.025Z,1.73
2022-11-10T11:18:11.970Z,2.45
2022-11-10T11:21:10.463Z,1.92
2022-11-10T11:24:10.381Z,1.92
2022-11-10T11:27:02.728Z,1.67
2022-11-10T11:30:05.709Z,1.48
2022-11-10T11:33:24.917Z,2.28
2022-11-10T11:36:23.820Z,2.42
2022-11-10T11:39:22.076Z,2.17
2022-11-10T11:42:21.884Z,1.77
2022-11-10T11:45:17.991Z,1.88
2022-11-10T11:48:21.325Z,2.47
2022-11-10T11:51:17.960Z,1.92
2022-11-10T11:54:30.281Z,1.73
2022-11-10T11:57:28.639Z,2.28
2022-11-10T12:00:18.493Z,1.83
2022-11-10T12:03:27.118Z,2.20
2022-11-10T12:06:31.014Z,2.17
2022-11-10T12:09:30.225Z,1.75
2022-11-10T12:12:42.609Z,1.67
2022-11-10T12:15:37.604Z,1.80
2022-11-10T12:18:36.417Z,2.28
2022-11-10T12:21:26.984Z,1.50
2022-11-10T12:24:40.471Z,2.00
2022-11-10T12:27:33.558Z,1.52
2022-11-10T12:30:21.670Z,1.95
2022-11-10T12:33:18.050Z,1.70
2022-11-10T12:36:13.129Z,1.60
2022-11-10T12:39:06.181Z,1.50
2022-11-10T12:41:59.311Z,1.27
2022-11-10T12:45:00.334Z,1.20
2022-11-10T12:47:49.274Z,1.33
2022-11-10T12:50:46.656Z,1.35
2022-11-10T12:53:39.500Z,1.20
2022-11-10T12:56:33.230Z,0.73
2022-11-10T12:59:29.068Z,0.80
2022-11-10T13:02:29.783Z,0.88
2022-11-10T13:05:33.658Z,1.05
2022-11-10T13:08:37.378Z,0.98
2022-11-10T13:11:29.144Z,1.40
2022-11-10T13:17:28.172Z,1.13
2022-11-10T13:20:52.769Z,1.50
2022-11-10T13:24:16.796Z,1.27
2022-11-10T13:27:07.005Z,1.45
2022-11-10T13:29:59.629Z,1.70
2022-11-10T13:32:47.276Z,1.33
2022-11-10T13:35:55.499Z,1.40
2022-11-10T13:38:46.083Z,2.35
2022-11-10T13:41:35.773Z,1.40
2022-11-10T13:44:29.780Z,1.90
2022-11-10T13:47:44.472Z,1.52
2022-11-10T13:50:48.763Z,1.58
2022-11-10T13:53:46.593Z,1.88
2022-11-10T13:57:11.698Z,2.00
2022-11-10T14:00:03.578Z,1.38
2022-11-10T14:06:06.885Z,2.00
2022-11-10T14:08:58.027Z,1.63
2022-11-10T14:11:50.489Z,1.95
2022-11-10T14:14:51.375Z,1.92
2022-11-10T14:17:47.981Z,1.92
2022-11-10T14:20:42.174Z,1.95
2022-11-10T14:23:34.975Z,2.10
2022-11-10T14:26:28.374Z,1.90
2022-11-10T14:29:28.548Z,1.80
2022-11-10T14:32:20.140Z,1.55
2022-11-10T14:35:20.601Z,2.22
2022-11-10T14:38:20.372Z,1.38
2022-11-10T14:41:16.432Z,1.30
2022-11-10T14:44:06.555Z,1.30
2022-11-10T14:46:54.673Z,1.40
2022-11-10T14:49:43.930Z,1.70
2022-11-10T14:52:33.422Z,1.38
2022-11-10T14:55:23.931Z,1.50
2022-11-10T14:58:15.988Z,1.60
2022-11-10T15:01:05.700Z,1.60
2022-11-10T15:03:54.070Z,1.60
2022-11-10T15:06:46.888Z,2.78
2022-11-10T15:09:36.383Z,1.58
2022-11-10T15:12:27.918Z,1.80
2022-11-10T15:15:23.427Z,1.65
2022-11-10T15:18:27.095Z,1.30
2022-11-10T15:21:17.423Z,2.15
2022-11-10T15:24:07.653Z,2.13
2022-11-10T15:26:56.548Z,1.95
2022-11-10T15:29:44.057Z,1.73
2022-11-10T15:32:36.174Z,1.70
2022-11-10T15:35:30.856Z,1.60
2022-11-10T15:38:31.895Z,1.70
2022-11-10T15:41:27.585Z,2.13
2022-11-10T15:44:19.867Z,2.03
2022-11-10T15:47:08.120Z,2.20
2022-11-10T15:49:56.094Z,1.92
2022-11-10T15:52:43.906Z,1.55
2022-11-10T15:55:34.487Z,2.25
2022-11-10T15:58:23.905Z,2.17
2022-11-10T16:01:14.340Z,2.33
2022-11-10T16:04:02.036Z,1.73
2022-11-10T16:06:49.975Z,1.83
2022-11-10T16:09:37.905Z,2.10
2022-11-10T16:12:25.623Z,2.38
2022-11-10T16:15:19.387Z,2.08
2022-11-10T16:18:13.199Z,2.50
2022-11-10T16:21:00.907Z,2.40
2022-11-10T16:23:53.041Z,1.90
2022-11-10T16:26:40.959Z,2.28
2022-11-10T16:29:28.480Z,2.50
2022-11-10T16:32:16.187Z,2.65
2022-11-10T16:35:05.077Z,2.50
2022-11-10T16:37:52.903Z,2.28
2022-11-10T16:40:40.693Z,2.08
2022-11-10T16:43:30.044Z,9.48
2022-11-10T16:46:21.050Z,1.88
2022-11-10T16:49:22.668Z,5.90
2022-11-10T16:52:15.935Z,2.53
2022-11-10T16:55:03.504Z,3.08
2022-11-10T16:57:51.012Z,2.60
2022-11-10T17:00:39.325Z,8.88
2022-11-10T17:03:32.779Z,6.00
2022-11-10T17:06:21.661Z,1.90
2022-11-10T17:09:15.826Z,2.20
2022-11-10T17:12:03.154Z,2.28
2022-11-10T17:14:50.373Z,1.98
2022-11-10T17:17:39.574Z,4.75
2022-11-10T17:20:33.278Z,2.15
2022-11-10T17:23:24.522Z,2.25
2022-11-10T17:26:15.886Z,1.48
2022-11-10T17:29:04.229Z,1.85
2022-11-10T17:31:51.830Z,2.20
2022-11-10T17:34:42.113Z,2.22
2022-11-10T17:37:29.781Z,2.33
2022-11-10T17:40:20.815Z,2.50
2022-11-10T17:43:12.333Z,2.90
2022-11-10T17:46:00.039Z,2.60
2022-11-10T17:48:50.597Z,5.45
2022-11-10T17:51:38.642Z,4.50
2022-11-10T17:54:26.602Z,2.15
2022-11-10T17:57:13.953Z,2.40
2022-11-10T18:00:03.048Z,1.90
2022-11-10T18:02:55.375Z,1.92
2022-11-10T18:05:43.500Z,2.40
2022-11-10T18:08:31.062Z,1.60
2022-11-10T18:11:20.367Z,1.20
2022-11-10T18:14:08.225Z,1.85
2022-11-10T18:16:57.583Z,2.55
2022-11-10T18:19:45.243Z,5.30
2022-11-10T18:22:33.127Z,25.48
2022-11-10T18:25:20.991Z,17.23
2022-11-10T18:28:09.257Z,5.38
2022-11-10T18:30:57.156Z,3.90
2022-11-10T18:33:46.703Z,11.43
2022-11-10T18:36:34.502Z,5.47
2022-11-10T18:39:21.991Z,4.68
2022-11-10T18:42:09.418Z,3.75
2022-11-10T18:44:57.195Z,5.78
2022-11-10T18:47:45.136Z,3.35
2022-11-10T18:50:34.551Z,2.58
2022-11-10T18:53:22.258Z,3.38
2022-11-10T18:56:09.985Z,2.63
2022-11-10T18:58:57.621Z,2.22
2022-11-10T19:01:45.511Z,1.70
2022-11-10T19:04:33.085Z,2.13
2022-11-10T19:07:21.896Z,1.38
2022-11-10T19:10:09.739Z,1.38
2022-11-10T19:12:57.707Z,1.00
2022-11-10T19:15:45.603Z,1.40
2022-11-10T19:18:33.302Z,1.23
2022-11-10T19:21:22.902Z,1.63
2022-11-10T19:24:12.502Z,2.10
2022-11-10T19:27:03.594Z,1.70
2022-11-10T19:29:50.793Z,1.88
2022-11-10T19:32:38.704Z,2.13
2022-11-10T19:35:26.835Z,2.05
2022-11-10T19:38:15.262Z,2.30
2022-11-10T19:41:07.652Z,2.50
2022-11-10T19:43:55.532Z,2.13
2022-11-10T19:46:42.904Z,2.70
2022-11-10T19:49:30.260Z,1.60
2022-11-10T19:52:17.950Z,2.00
2022-11-10T19:55:05.651Z,2.58
2022-11-10T19:57:54.686Z,2.47
2022-11-10T20:00:47.567Z,2.35
2022-11-10T20:03:35.080Z,2.22
2022-11-10T20:06:23.865Z,2.10
2022-11-10T20:09:11.540Z,2.70
2022-11-10T20:11:58.959Z,2.42
2022-11-10T20:14:47.901Z,2.42
2022-11-10T20:17:35.919Z,2.92
2022-11-10T20:20:23.246Z,2.35
2022-11-10T20:23:12.941Z,2.70
2022-11-10T20:26:06.137Z,2.60
2022-11-10T20:28:53.621Z,2.75
2022-11-10T20:31:42.927Z,3.03
2022-11-10T20:34:30.905Z,2.83
2022-11-10T20:37:18.485Z,2.67
2022-11-10T20:40:37.604Z,2.88
2022-11-10T20:43:15.538Z,2.80
2022-11-10T20:46:03.880Z,2.28
2022-11-10T20:48:52.993Z,2.05
2022-11-10T20:51:41.967Z,2.42
2022-11-10T20:54:29.651Z,3.00
2022-11-10T20:57:17.490Z,2.38
2022-11-10T21:00:05.906Z,3.38
2022-11-10T21:02:53.396Z,2.22
2022-11-10T21:05:42.617Z,2.58
2022-11-10T21:08:30.861Z,3.88
2022-11-10T21:11:39.060Z,2.60
2022-11-10T21:14:25.542Z,3.00
2022-11-10T21:17:13.266Z,2.17
2022-11-10T21:20:01.033Z,2.58
2022-11-10T21:22:50.000Z,2.22
2022-11-10T21:25:37.587Z,2.13
2022-11-10T21:28:26.317Z,2.10
2022-11-10T21:31:14.150Z,2.17
2022-11-10T21:34:02.036Z,2.13
2022-11-10T21:36:49.526Z,1.70
2022-11-10T21:39:38.804Z,2.15
2022-11-10T21:42:31.579Z,1.50
2022-11-10T21:45:22.547Z,1.40
2022-11-10T21:48:10.837Z,1.77
2022-11-10T21:51:01.495Z,1.25
2022-11-10T21:53:49.447Z,1.27
2022-11-10T21:56:40.046Z,1.58
2022-11-10T21:59:28.003Z,1.58
2022-11-10T22:02:15.947Z,1.45
2022-11-10T22:05:03.308Z,1.58
2022-11-10T22:07:51.022Z,1.63
2022-11-10T22:10:56.707Z,1.60
2022-11-10T22:14:03.662Z,1.63
2022-11-10T22:17:09.803Z,1.58
2022-11-10T22:19:57.351Z,1.80
2022-11-10T22:22:45.459Z,2.00
2022-11-10T22:25:33.477Z,1.27
2022-11-10T22:28:21.400Z,1.95
2022-11-10T22:31:11.536Z,2.13
2022-11-10T22:33:59.254Z,1.55
2022-11-10T22:36:49.304Z,2.08
2022-11-10T22:39:54.083Z,2.08
2022-11-10T22:42:59.001Z,1.77
2022-11-10T22:45:46.544Z,1.70
2022-11-10T22:48:35.711Z,2.05
2022-11-10T22:51:23.564Z,1.70
2022-11-10T22:54:12.291Z,2.60
2022-11-10T22:56:59.920Z,1.60
2022-11-10T22:59:47.431Z,1.90
2022-11-10T23:02:34.804Z,1.40
2022-11-10T23:05:23.757Z,1.55
2022-11-10T23:08:11.744Z,1.52
2022-11-10T23:11:00.860Z,1.50
2022-11-10T23:13:49.912Z,1.50
2022-11-10T23:16:37.440Z,1.30
2022-11-10T23:19:24.919Z,1.63
2022-11-10T23:22:13.815Z,1.48
2022-11-10T23:25:01.369Z,1.40
2022-11-10T23:27:48.831Z,1.20
2022-11-10T23:30:36.230Z,1.60
2022-11-10T23:33:28.710Z,1.10
2022-11-10T23:36:19.875Z,1.00
2022-11-10T23:39:10.068Z,0.93
2022-11-10T23:41:57.641Z,1.10
2022-11-10T23:44:45.167Z,1.00
2022-11-10T23:47:32.896Z,0.82
2022-11-10T23:50:20.182Z,1.25
2022-11-10T23:53:07.502Z,1.10
2022-11-10T23:56:01.215Z,1.00
2022-11-10T23:58:48.699Z,0.90
